sensor_id;sensor_type;location;lat;lon;timestamp;pressure;altitude;pressure_sealevel;temperature;humidity
49979;BME280;35869;50.990;6.962;2023-04-24T00:04:33;99889.28;;;11.40;84.78
49979;BME280;35869;50.990;6.962;2023-04-24T00:09:33;99880.81;;;11.36;85.57
49979;BME280;35869;50.990;6.962;2023-04-24T00:14:34;99876.53;;;11.35;85.25
49979;BME280;35869;50.990;6.962;2023-04-24T00:19:34;99875.59;;;11.36;85.98
49979;BME280;35869;50.990;6.962;2023-04-24T00:24:34;99880.91;;;11.35;87.03
49979;BME280;35869;50.990;6.962;2023-04-24T00:29:34;99867.44;;;11.28;88.88
49979;BME280;35869;50.990;6.962;2023-04-24T00:34:34;99867.91;;;11.35;86.43
49979;BME280;35869;50.990;6.962;2023-04-24T00:39:35;99861.13;;;11.32;87.37
49979;BME280;35869;50.990;6.962;2023-04-24T00:44:35;99865.84;;;11.26;88.22
49979;BME280;35869;50.990;6.962;2023-04-24T00:49:35;99859.81;;;11.11;88.99
49979;BME280;35869;50.990;6.962;2023-04-24T00:54:36;99858.88;;;10.98;89.49
49979;BME280;35869;50.990;6.962;2023-04-24T00:59:36;99861.56;;;11.25;87.41
49979;BME280;35869;50.990;6.962;2023-04-24T01:04:37;99857.31;;;11.24;88.89
49979;BME280;35869;50.990;6.962;2023-04-24T01:09:40;99858.16;;;11.24;87.52
49979;BME280;35869;50.990;6.962;2023-04-24T01:14:40;99855.75;;;11.21;84.07
49979;BME280;35869;50.990;6.962;2023-04-24T01:19:41;99855.34;;;10.99;85.01
49979;BME280;35869;50.990;6.962;2023-04-24T01:24:41;99861.75;;;11.07;85.48
49979;BME280;35869;50.990;6.962;2023-04-24T01:29:42;99871.94;;;10.82;86.56
49979;BME280;35869;50.990;6.962;2023-04-24T01:34:42;99882.03;;;10.72;82.77
49979;BME280;35869;50.990;6.962;2023-04-24T01:39:43;99896.09;;;10.84;84.82
49979;BME280;35869;50.990;6.962;2023-04-24T01:44:44;99897.50;;;10.59;85.58
49979;BME280;35869;50.990;6.962;2023-04-24T01:49:45;99892.88;;;10.64;83.10
49979;BME280;35869;50.990;6.962;2023-04-24T01:54:45;99884.78;;;10.55;82.12
49979;BME280;35869;50.990;6.962;2023-04-24T01:59:46;99889.13;;;10.54;82.84
49979;BME280;35869;50.990;6.962;2023-04-24T02:04:46;99889.19;;;10.23;84.08
49979;BME280;35869;50.990;6.962;2023-04-24T02:09:46;99893.56;;;10.38;83.27
49979;BME280;35869;50.990;6.962;2023-04-24T02:14:46;99893.47;;;10.39;82.42
49979;BME280;35869;50.990;6.962;2023-04-24T02:19:47;99906.53;;;10.22;83.28
49979;BME280;35869;50.990;6.962;2023-04-24T02:24:47;99909.72;;;10.11;82.64
49979;BME280;35869;50.990;6.962;2023-04-24T02:29:47;99901.09;;;10.11;83.63
49979;BME280;35869;50.990;6.962;2023-04-24T02:34:47;99905.84;;;10.19;83.43
49979;BME280;35869;50.990;6.962;2023-04-24T02:39:47;99908.19;;;10.07;84.21
49979;BME280;35869;50.990;6.962;2023-04-24T02:44:48;99906.88;;;10.00;83.30
49979;BME280;35869;50.990;6.962;2023-04-24T02:49:48;99911.47;;;9.95;84.69
49979;BME280;35869;50.990;6.962;2023-04-24T02:54:48;99924.78;;;9.89;84.21
49979;BME280;35869;50.990;6.962;2023-04-24T02:59:48;99939.75;;;9.84;84.72
49979;BME280;35869;50.990;6.962;2023-04-24T03:04:48;99935.81;;;9.77;86.08
49979;BME280;35869;50.990;6.962;2023-04-24T03:09:49;99946.81;;;9.82;84.07
49979;BME280;35869;50.990;6.962;2023-04-24T03:14:49;99941.44;;;9.69;86.82
49979;BME280;35869;50.990;6.962;2023-04-24T03:19:49;99940.22;;;9.59;85.90
49979;BME280;35869;50.990;6.962;2023-04-24T03:24:49;99957.66;;;9.73;85.35
49979;BME280;35869;50.990;6.962;2023-04-24T03:29:49;99952.88;;;9.65;86.38
49979;BME280;35869;50.990;6.962;2023-04-24T03:34:50;99951.03;;;9.67;85.90
49979;BME280;35869;50.990;6.962;2023-04-24T03:39:50;99951.22;;;9.64;85.80
49979;BME280;35869;50.990;6.962;2023-04-24T03:44:50;99943.78;;;9.74;84.92
49979;BME280;35869;50.990;6.962;2023-04-24T03:49:50;99942.41;;;9.51;87.51
49979;BME280;35869;50.990;6.962;2023-04-24T03:54:50;99951.13;;;9.66;87.58
49979;BME280;35869;50.990;6.962;2023-04-24T03:59:51;99957.97;;;9.67;85.84
49979;BME280;35869;50.990;6.962;2023-04-24T04:04:51;99960.25;;;9.57;86.41
49979;BME280;35869;50.990;6.962;2023-04-24T04:09:51;99955.31;;;9.68;83.99
49979;BME280;35869;50.990;6.962;2023-04-24T04:14:51;99959.31;;;9.58;84.36
49979;BME280;35869;50.990;6.962;2023-04-24T04:19:51;99955.97;;;9.56;83.95
49979;BME280;35869;50.990;6.962;2023-04-24T04:24:52;99959.56;;;9.53;86.41
49979;BME280;35869;50.990;6.962;2023-04-24T04:29:52;99968.16;;;9.54;86.57
49979;BME280;35869;50.990;6.962;2023-04-24T04:34:52;99965.91;;;9.48;83.80
49979;BME280;35869;50.990;6.962;2023-04-24T04:39:52;99967.75;;;9.46;86.50
49979;BME280;35869;50.990;6.962;2023-04-24T04:44:53;99979.09;;;9.43;86.03
49979;BME280;35869;50.990;6.962;2023-04-24T04:49:53;99974.31;;;9.35;85.93
49979;BME280;35869;50.990;6.962;2023-04-24T04:54:53;99971.16;;;9.46;87.48
49979;BME280;35869;50.990;6.962;2023-04-24T04:59:53;99983.06;;;9.50;85.86
49979;BME280;35869;50.990;6.962;2023-04-24T05:04:53;99981.69;;;9.43;87.31
49979;BME280;35869;50.990;6.962;2023-04-24T05:09:54;99988.41;;;9.47;87.58
49979;BME280;35869;50.990;6.962;2023-04-24T05:14:54;99991.75;;;9.49;86.80
49979;BME280;35869;50.990;6.962;2023-04-24T05:19:54;99991.16;;;9.44;87.58
49979;BME280;35869;50.990;6.962;2023-04-24T05:24:54;99991.41;;;9.40;87.84
49979;BME280;35869;50.990;6.962;2023-04-24T05:29:54;100003.28;;;9.44;86.07
49979;BME280;35869;50.990;6.962;2023-04-24T05:34:55;100013.50;;;9.47;88.06
49979;BME280;35869;50.990;6.962;2023-04-24T05:39:55;100014.81;;;9.38;88.96
49979;BME280;35869;50.990;6.962;2023-04-24T05:44:55;100022.00;;;9.33;90.02
49979;BME280;35869;50.990;6.962;2023-04-24T05:49:55;100022.44;;;9.24;91.73
49979;BME280;35869;50.990;6.962;2023-04-24T05:54:55;100017.78;;;9.30;92.54
49979;BME280;35869;50.990;6.962;2023-04-24T05:59:56;100019.00;;;9.41;90.56
49979;BME280;35869;50.990;6.962;2023-04-24T06:04:56;100017.53;;;9.52;90.04
49979;BME280;35869;50.990;6.962;2023-04-24T06:09:56;100023.28;;;9.42;91.01
49979;BME280;35869;50.990;6.962;2023-04-24T06:14:56;100036.00;;;9.46;91.21
49979;BME280;35869;50.990;6.962;2023-04-24T06:19:56;100027.50;;;9.27;90.73
49979;BME280;35869;50.990;6.962;2023-04-24T06:24:57;100035.50;;;9.22;90.16
49979;BME280;35869;50.990;6.962;2023-04-24T06:29:57;100023.97;;;9.28;91.28
49979;BME280;35869;50.990;6.962;2023-04-24T06:34:57;100035.63;;;9.19;93.09
49979;BME280;35869;50.990;6.962;2023-04-24T06:39:57;100033.94;;;9.18;94.57
49979;BME280;35869;50.990;6.962;2023-04-24T06:44:57;100035.63;;;9.19;91.87
49979;BME280;35869;50.990;6.962;2023-04-24T06:49:58;100045.34;;;9.16;94.10
49979;BME280;35869;50.990;6.962;2023-04-24T06:55:05;100059.47;;;9.08;95.78
49979;BME280;35869;50.990;6.962;2023-04-24T07:00:05;100057.38;;;9.17;95.78
49979;BME280;35869;50.990;6.962;2023-04-24T07:05:06;100057.28;;;9.01;97.94
49979;BME280;35869;50.990;6.962;2023-04-24T07:10:07;100056.81;;;8.93;99.50
49979;BME280;35869;50.990;6.962;2023-04-24T07:15:08;100059.66;;;9.05;98.96
49979;BME280;35869;50.990;6.962;2023-04-24T07:20:08;100054.28;;;9.08;98.82
49979;BME280;35869;50.990;6.962;2023-04-24T07:25:09;100058.94;;;9.02;99.18
49979;BME280;35869;50.990;6.962;2023-04-24T07:30:09;100075.88;;;8.73;100.00
49979;BME280;35869;50.990;6.962;2023-04-24T07:35:10;100086.88;;;8.78;100.00
49979;BME280;35869;50.990;6.962;2023-04-24T07:40:10;100085.22;;;8.58;100.00
49979;BME280;35869;50.990;6.962;2023-04-24T07:45:11;100099.06;;;8.76;100.00
49979;BME280;35869;50.990;6.962;2023-04-24T07:50:12;100117.84;;;8.62;100.00
49979;BME280;35869;50.990;6.962;2023-04-24T07:55:12;100117.97;;;8.59;100.00
49979;BME280;35869;50.990;6.962;2023-04-24T08:00:12;100124.44;;;8.50;100.00
49979;BME280;35869;50.990;6.962;2023-04-24T08:05:13;100137.25;;;8.33;100.00
49979;BME280;35869;50.990;6.962;2023-04-24T08:10:13;100148.84;;;8.45;100.00
49979;BME280;35869;50.990;6.962;2023-04-24T08:15:13;100162.31;;;8.33;100.00
49979;BME280;35869;50.990;6.962;2023-04-24T08:20:13;100158.88;;;8.12;100.00
49979;BME280;35869;50.990;6.962;2023-04-24T08:25:14;100172.03;;;8.07;100.00
49979;BME280;35869;50.990;6.962;2023-04-24T08:30:14;100175.03;;;7.98;100.00
49979;BME280;35869;50.990;6.962;2023-04-24T08:35:15;100178.31;;;8.01;100.00
49979;BME280;35869;50.990;6.962;2023-04-24T08:40:16;100186.50;;;7.91;100.00
49979;BME280;35869;50.990;6.962;2023-04-24T08:45:16;100194.66;;;8.02;100.00
49979;BME280;35869;50.990;6.962;2023-04-24T08:50:16;100207.03;;;7.75;100.00
49979;BME280;35869;50.990;6.962;2023-04-24T08:55:17;100211.09;;;7.81;100.00
49979;BME280;35869;50.990;6.962;2023-04-24T09:00:18;100215.38;;;7.60;100.00
49979;BME280;35869;50.990;6.962;2023-04-24T09:05:21;100227.47;;;7.59;100.00
49979;BME280;35869;50.990;6.962;2023-04-24T09:10:23;100243.06;;;7.58;100.00
49979;BME280;35869;50.990;6.962;2023-04-24T09:15:24;100248.09;;;7.61;100.00
49979;BME280;35869;50.990;6.962;2023-04-24T09:20:24;100263.56;;;7.62;100.00
49979;BME280;35869;50.990;6.962;2023-04-24T09:25:31;100277.97;;;7.68;100.00
49979;BME280;35869;50.990;6.962;2023-04-24T09:30:32;100298.63;;;7.69;100.00
49979;BME280;35869;50.990;6.962;2023-04-24T09:35:32;100308.16;;;7.69;100.00
49979;BME280;35869;50.990;6.962;2023-04-24T09:40:34;100318.97;;;7.79;100.00
49979;BME280;35869;50.990;6.962;2023-04-24T09:45:36;100324.84;;;7.60;100.00
49979;BME280;35869;50.990;6.962;2023-04-24T09:50:36;100338.56;;;7.84;100.00
49979;BME280;35869;50.990;6.962;2023-04-24T09:55:45;100341.72;;;7.92;100.00
49979;BME280;35869;50.990;6.962;2023-04-24T10:00:45;100348.34;;;7.99;100.00
49979;BME280;35869;50.990;6.962;2023-04-24T10:05:46;100352.84;;;7.94;100.00
49979;BME280;35869;50.990;6.962;2023-04-24T10:10:46;100360.50;;;7.97;100.00
49979;BME280;35869;50.990;6.962;2023-04-24T10:15:47;100368.38;;;8.16;100.00
49979;BME280;35869;50.990;6.962;2023-04-24T10:20:48;100380.22;;;8.22;100.00
49979;BME280;35869;50.990;6.962;2023-04-24T10:25:50;100381.97;;;8.43;100.00
49979;BME280;35869;50.990;6.962;2023-04-24T10:30:51;100387.69;;;8.51;100.00
49979;BME280;35869;50.990;6.962;2023-04-24T10:35:54;100388.34;;;8.57;100.00
49979;BME280;35869;50.990;6.962;2023-04-24T10:41:09;100396.44;;;8.69;100.00
49979;BME280;35869;50.990;6.962;2023-04-24T10:46:09;100400.78;;;8.69;100.00
49979;BME280;35869;50.990;6.962;2023-04-24T10:51:12;100412.44;;;8.79;100.00
49979;BME280;35869;50.990;6.962;2023-04-24T10:56:15;100417.63;;;8.79;100.00
49979;BME280;35869;50.990;6.962;2023-04-24T11:01:30;100430.31;;;8.85;100.00
49979;BME280;35869;50.990;6.962;2023-04-24T11:06:35;100439.16;;;8.81;100.00
49979;BME280;35869;50.990;6.962;2023-04-24T11:11:37;100442.03;;;8.73;100.00
49979;BME280;35869;50.990;6.962;2023-04-24T11:16:53;100437.09;;;8.67;100.00
49979;BME280;35869;50.990;6.962;2023-04-24T11:32:33;100450.88;;;8.90;100.00
49979;BME280;35869;50.990;6.962;2023-04-24T11:37:36;100448.81;;;8.98;100.00
49979;BME280;35869;50.990;6.962;2023-04-24T11:42:40;100448.94;;;9.15;100.00
49979;BME280;35869;50.990;6.962;2023-04-24T11:47:41;100454.81;;;9.19;100.00
49979;BME280;35869;50.990;6.962;2023-04-24T11:52:44;100463.25;;;9.24;100.00
49979;BME280;35869;50.990;6.962;2023-04-24T11:57:46;100470.03;;;9.47;100.00
49979;BME280;35869;50.990;6.962;2023-04-24T12:02:48;100472.84;;;9.42;100.00
49979;BME280;35869;50.990;6.962;2023-04-24T12:07:48;100480.88;;;9.56;100.00
49979;BME280;35869;50.990;6.962;2023-04-24T12:12:49;100489.03;;;9.68;100.00
49979;BME280;35869;50.990;6.962;2023-04-24T12:17:53;100490.94;;;9.83;100.00
49979;BME280;35869;50.990;6.962;2023-04-24T12:22:55;100495.47;;;9.78;100.00
49979;BME280;35869;50.990;6.962;2023-04-24T12:33:03;100502.56;;;9.74;100.00
49979;BME280;35869;50.990;6.962;2023-04-24T12:38:10;100501.88;;;9.89;100.00
49979;BME280;35869;50.990;6.962;2023-04-24T12:43:19;100515.94;;;10.04;100.00
49979;BME280;35869;50.990;6.962;2023-04-24T12:48:19;100514.00;;;10.08;100.00
49979;BME280;35869;50.990;6.962;2023-04-24T12:53:20;100511.13;;;10.14;100.00
49979;BME280;35869;50.990;6.962;2023-04-24T12:58:20;100510.47;;;10.10;100.00
49979;BME280;35869;50.990;6.962;2023-04-24T13:03:20;100514.59;;;10.14;100.00
49979;BME280;35869;50.990;6.962;2023-04-24T13:08:20;100524.38;;;10.28;97.64
49979;BME280;35869;50.990;6.962;2023-04-24T13:13:21;100528.38;;;10.35;95.46
49979;BME280;35869;50.990;6.962;2023-04-24T13:18:21;100521.41;;;10.36;96.04
49979;BME280;35869;50.990;6.962;2023-04-24T13:23:22;100522.69;;;10.46;96.73
49979;BME280;35869;50.990;6.962;2023-04-24T13:28:22;100531.81;;;10.36;95.62
49979;BME280;35869;50.990;6.962;2023-04-24T13:33:22;100526.50;;;10.75;89.03
49979;BME280;35869;50.990;6.962;2023-04-24T13:38:23;100522.97;;;10.76;91.88
49979;BME280;35869;50.990;6.962;2023-04-24T13:43:23;100532.38;;;10.79;90.47
49979;BME280;35869;50.990;6.962;2023-04-24T13:48:24;100535.84;;;10.79;92.13
49979;BME280;35869;50.990;6.962;2023-04-24T13:53:24;100532.25;;;10.82;90.57
49979;BME280;35869;50.990;6.962;2023-04-24T13:58:24;100541.81;;;10.81;89.28
49979;BME280;35869;50.990;6.962;2023-04-24T14:03:24;100547.13;;;10.78;88.94
49979;BME280;35869;50.990;6.962;2023-04-24T14:08:25;100532.94;;;10.85;88.62
49979;BME280;35869;50.990;6.962;2023-04-24T14:13:25;100540.56;;;10.71;88.77
49979;BME280;35869;50.990;6.962;2023-04-24T14:18:25;100538.00;;;11.06;87.33
49979;BME280;35869;50.990;6.962;2023-04-24T14:23:33;100530.28;;;11.04;87.91
49979;BME280;35869;50.990;6.962;2023-04-24T14:28:47;100537.41;;;11.35;82.91
49979;BME280;35869;50.990;6.962;2023-04-24T14:33:56;100536.25;;;11.41;82.19
49979;BME280;35869;50.990;6.962;2023-04-24T14:38:56;100540.53;;;11.25;83.54
49979;BME280;35869;50.990;6.962;2023-04-24T14:43:56;100538.41;;;11.33;83.09
49979;BME280;35869;50.990;6.962;2023-04-24T14:48:56;100539.16;;;11.52;76.47
49979;BME280;35869;50.990;6.962;2023-04-24T14:53:58;100548.31;;;11.59;80.07
49979;BME280;35869;50.990;6.962;2023-04-24T14:58:58;100554.84;;;11.68;79.56
49979;BME280;35869;50.990;6.962;2023-04-24T15:03:58;100550.28;;;11.71;83.25
49979;BME280;35869;50.990;6.962;2023-04-24T15:08:58;100555.78;;;11.50;83.18
49979;BME280;35869;50.990;6.962;2023-04-24T15:13:59;100554.63;;;11.55;81.75
49979;BME280;35869;50.990;6.962;2023-04-24T15:18:59;100554.00;;;11.67;83.00
49979;BME280;35869;50.990;6.962;2023-04-24T15:23:59;100557.97;;;11.74;81.45
49979;BME280;35869;50.990;6.962;2023-04-24T15:28:59;100564.63;;;11.80;79.06
49979;BME280;35869;50.990;6.962;2023-04-24T15:33:59;100565.41;;;11.82;81.42
49979;BME280;35869;50.990;6.962;2023-04-24T15:39:03;100565.56;;;11.62;80.98
49979;BME280;35869;50.990;6.962;2023-04-24T15:44:03;100564.22;;;11.70;77.81
49979;BME280;35869;50.990;6.962;2023-04-24T15:49:04;100558.81;;;11.75;77.94
49979;BME280;35869;50.990;6.962;2023-04-24T15:54:04;100560.41;;;11.60;79.94
49979;BME280;35869;50.990;6.962;2023-04-24T15:59:05;100561.22;;;11.45;74.58
49979;BME280;35869;50.990;6.962;2023-04-24T16:04:05;100571.72;;;11.77;73.63
49979;BME280;35869;50.990;6.962;2023-04-24T16:09:05;100558.34;;;11.84;78.85
49979;BME280;35869;50.990;6.962;2023-04-24T16:14:05;100557.13;;;11.91;78.14
49979;BME280;35869;50.990;6.962;2023-04-24T16:19:06;100560.88;;;11.68;78.48
49979;BME280;35869;50.990;6.962;2023-04-24T16:24:06;100570.81;;;11.78;78.02
49979;BME280;35869;50.990;6.962;2023-04-24T16:29:06;100561.03;;;11.83;76.01
49979;BME280;35869;50.990;6.962;2023-04-24T16:34:06;100561.50;;;11.73;75.16
49979;BME280;35869;50.990;6.962;2023-04-24T16:39:07;100567.16;;;11.47;73.52
49979;BME280;35869;50.990;6.962;2023-04-24T16:44:08;100565.31;;;11.66;77.75
49979;BME280;35869;50.990;6.962;2023-04-24T16:49:08;100563.25;;;11.73;74.13
49979;BME280;35869;50.990;6.962;2023-04-24T16:54:09;100572.84;;;11.55;75.59
49979;BME280;35869;50.990;6.962;2023-04-24T16:59:09;100570.06;;;11.58;76.44
49979;BME280;35869;50.990;6.962;2023-04-24T17:04:09;100568.53;;;11.37;76.37
49979;BME280;35869;50.990;6.962;2023-04-24T17:09:09;100576.13;;;11.41;75.46
49979;BME280;35869;50.990;6.962;2023-04-24T17:14:10;100579.78;;;11.37;73.88
49979;BME280;35869;50.990;6.962;2023-04-24T17:19:13;100586.75;;;11.37;75.42
49979;BME280;35869;50.990;6.962;2023-04-24T17:24:14;100585.25;;;11.33;76.36
49979;BME280;35869;50.990;6.962;2023-04-24T17:29:14;100591.13;;;11.36;74.87
49979;BME280;35869;50.990;6.962;2023-04-24T17:34:14;100589.97;;;11.42;75.84
49979;BME280;35869;50.990;6.962;2023-04-24T17:39:14;100598.53;;;11.09;78.13
49979;BME280;35869;50.990;6.962;2023-04-24T17:44:15;100603.28;;;11.18;73.11
49979;BME280;35869;50.990;6.962;2023-04-24T17:49:15;100601.53;;;11.36;74.22
49979;BME280;35869;50.990;6.962;2023-04-24T17:54:16;100602.81;;;11.10;76.18
49979;BME280;35869;50.990;6.962;2023-04-24T17:59:16;100602.66;;;11.13;76.21
49979;BME280;35869;50.990;6.962;2023-04-24T18:04:16;100617.38;;;10.95;77.81
49979;BME280;35869;50.990;6.962;2023-04-24T18:09:16;100617.38;;;10.95;76.32
49979;BME280;35869;50.990;6.962;2023-04-24T18:14:18;100616.28;;;10.82;78.18
49979;BME280;35869;50.990;6.962;2023-04-24T18:19:18;100625.63;;;10.86;77.88
49979;BME280;35869;50.990;6.962;2023-04-24T18:24:18;100629.63;;;10.75;78.57
49979;BME280;35869;50.990;6.962;2023-04-24T18:29:19;100633.00;;;10.77;79.11
49979;BME280;35869;50.990;6.962;2023-04-24T18:34:19;100639.78;;;10.62;78.72
49979;BME280;35869;50.990;6.962;2023-04-24T18:39:19;100643.59;;;10.53;79.99
49979;BME280;35869;50.990;6.962;2023-04-24T18:44:19;100651.88;;;10.43;80.77
49979;BME280;35869;50.990;6.962;2023-04-24T18:49:19;100656.19;;;10.44;78.70
49979;BME280;35869;50.990;6.962;2023-04-24T18:54:20;100663.66;;;10.31;82.23
49979;BME280;35869;50.990;6.962;2023-04-24T18:59:21;100668.16;;;10.27;82.03
49979;BME280;35869;50.990;6.962;2023-04-24T19:04:21;100673.78;;;10.17;83.08
49979;BME280;35869;50.990;6.962;2023-04-24T19:09:21;100683.03;;;10.03;84.19
49979;BME280;35869;50.990;6.962;2023-04-24T19:14:21;100679.78;;;9.98;84.22
49979;BME280;35869;50.990;6.962;2023-04-24T19:19:22;100688.09;;;9.86;82.20
49979;BME280;35869;50.990;6.962;2023-04-24T19:24:23;100698.50;;;9.84;84.18
49979;BME280;35869;50.990;6.962;2023-04-24T19:29:23;100700.59;;;9.76;84.20
49979;BME280;35869;50.990;6.962;2023-04-24T19:34:24;100704.41;;;9.68;83.31
49979;BME280;35869;50.990;6.962;2023-04-24T19:39:24;100703.88;;;9.59;83.36
49979;BME280;35869;50.990;6.962;2023-04-24T19:44:24;100711.38;;;9.45;84.23
49979;BME280;35869;50.990;6.962;2023-04-24T19:49:24;100706.28;;;9.42;84.51
49979;BME280;35869;50.990;6.962;2023-04-24T19:54:25;100711.41;;;9.44;81.26
49979;BME280;35869;50.990;6.962;2023-04-24T19:59:25;100706.53;;;9.36;83.70
49979;BME280;35869;50.990;6.962;2023-04-24T20:04:25;100710.28;;;9.29;82.02
49979;BME280;35869;50.990;6.962;2023-04-24T20:09:25;100713.78;;;9.28;83.33
49979;BME280;35869;50.990;6.962;2023-04-24T20:14:25;100708.47;;;9.31;83.79
49979;BME280;35869;50.990;6.962;2023-04-24T20:19:26;100712.19;;;9.24;85.02
49979;BME280;35869;50.990;6.962;2023-04-24T20:24:26;100709.06;;;9.16;86.11
49979;BME280;35869;50.990;6.962;2023-04-24T20:29:27;100723.06;;;9.12;85.96
49979;BME280;35869;50.990;6.962;2023-04-24T20:34:27;100720.38;;;9.13;85.88
49979;BME280;35869;50.990;6.962;2023-04-24T20:39:28;100717.25;;;9.05;85.95
49979;BME280;35869;50.990;6.962;2023-04-24T20:44:31;100720.00;;;9.00;86.59
49979;BME280;35869;50.990;6.962;2023-04-24T20:49:31;100722.97;;;8.91;85.58
49979;BME280;35869;50.990;6.962;2023-04-24T20:54:32;100724.81;;;8.88;85.99
49979;BME280;35869;50.990;6.962;2023-04-24T20:59:35;100727.69;;;8.80;85.67
49979;BME280;35869;50.990;6.962;2023-04-24T21:04:35;100728.16;;;8.68;86.90
49979;BME280;35869;50.990;6.962;2023-04-24T21:09:35;100740.44;;;8.63;87.20
49979;BME280;35869;50.990;6.962;2023-04-24T21:14:36;100741.38;;;8.60;87.51
49979;BME280;35869;50.990;6.962;2023-04-24T21:19:36;100728.63;;;8.54;88.97
49979;BME280;35869;50.990;6.962;2023-04-24T21:24:36;100734.09;;;8.46;88.49
49979;BME280;35869;50.990;6.962;2023-04-24T21:29:36;100723.81;;;8.43;87.97
49979;BME280;35869;50.990;6.962;2023-04-24T21:34:37;100730.13;;;8.36;88.42
49979;BME280;35869;50.990;6.962;2023-04-24T21:39:37;100726.88;;;8.29;88.45
49979;BME280;35869;50.990;6.962;2023-04-24T21:44:37;100721.97;;;8.22;89.57
49979;BME280;35869;50.990;6.962;2023-04-24T21:49:37;100730.16;;;8.10;89.88
49979;BME280;35869;50.990;6.962;2023-04-24T21:54:37;100727.56;;;8.10;88.74
49979;BME280;35869;50.990;6.962;2023-04-24T21:59:38;100730.38;;;8.04;89.70
49979;BME280;35869;50.990;6.962;2023-04-24T22:04:39;100728.63;;;8.04;89.50
49979;BME280;35869;50.990;6.962;2023-04-24T22:09:39;100728.16;;;7.91;89.94
49979;BME280;35869;50.990;6.962;2023-04-24T22:14:39;100730.75;;;7.91;89.91
49979;BME280;35869;50.990;6.962;2023-04-24T22:19:39;100724.91;;;7.86;89.72
49979;BME280;35869;50.990;6.962;2023-04-24T22:24:40;100720.72;;;7.82;90.41
49979;BME280;35869;50.990;6.962;2023-04-24T22:29:40;100725.34;;;7.72;89.78
49979;BME280;35869;50.990;6.962;2023-04-24T22:34:40;100719.06;;;7.80;89.96
49979;BME280;35869;50.990;6.962;2023-04-24T22:39:40;100727.00;;;7.75;90.40
49979;BME280;35869;50.990;6.962;2023-04-24T22:44:40;100727.97;;;7.71;91.04
49979;BME280;35869;50.990;6.962;2023-04-24T22:49:41;100726.28;;;7.70;90.64
49979;BME280;35869;50.990;6.962;2023-04-24T22:54:41;100726.63;;;7.59;91.75
49979;BME280;35869;50.990;6.962;2023-04-24T22:59:41;100720.69;;;7.57;90.99
49979;BME280;35869;50.990;6.962;2023-04-24T23:04:41;100723.34;;;7.54;91.28
49979;BME280;35869;50.990;6.962;2023-04-24T23:09:41;100730.44;;;7.47;90.60
49979;BME280;35869;50.990;6.962;2023-04-24T23:14:42;100721.06;;;7.45;91.37
49979;BME280;35869;50.990;6.962;2023-04-24T23:19:42;100728.13;;;7.38;92.30
49979;BME280;35869;50.990;6.962;2023-04-24T23:24:42;100720.69;;;7.29;92.44
49979;BME280;35869;50.990;6.962;2023-04-24T23:29:43;100726.44;;;7.37;92.54
49979;BME280;35869;50.990;6.962;2023-04-24T23:34:43;100728.31;;;7.34;92.19
49979;BME280;35869;50.990;6.962;2023-04-24T23:39:43;100726.75;;;7.28;93.38
49979;BME280;35869;50.990;6.962;2023-04-24T23:44:44;100734.50;;;7.28;92.69
49979;BME280;35869;50.990;6.962;2023-04-24T23:49:44;100725.94;;;7.26;92.89
49979;BME280;35869;50.990;6.962;2023-04-24T23:54:44;100728.81;;;7.17;93.03
49979;BME280;35869;50.990;6.962;2023-04-24T23:59:44;100729.84;;;7.11;92.55
